createdAt,value
2022-10-17T00:00:46.358Z,99.90
2022-10-17T00:02:19.427Z,99.90
2022-10-17T00:03:52.853Z,99.90
2022-10-17T00:05:25.120Z,99.90
2022-10-17T00:06:58.181Z,99.90
2022-10-17T00:08:30.291Z,99.90
2022-10-17T00:10:03.341Z,99.90
2022-10-17T00:11:36.828Z,99.90
2022-10-17T00:13:11.918Z,99.90
2022-10-17T00:14:45.066Z,99.90
2022-10-17T00:16:25.609Z,99.90
2022-10-17T00:17:57.716Z,99.90
2022-10-17T00:19:30.974Z,99.90
2022-10-17T00:21:04.165Z,99.90
2022-10-17T00:22:37.234Z,99.90
2022-10-17T00:24:10.470Z,99.90
2022-10-17T00:25:43.573Z,99.90
2022-10-17T00:27:16.784Z,99.90
2022-10-17T00:28:52.751Z,99.90
2022-10-17T00:30:25.840Z,99.90
2022-10-17T00:31:58.150Z,99.90
2022-10-17T00:33:31.892Z,99.90
2022-10-17T00:35:04.755Z,99.90
2022-10-17T00:36:37.786Z,99.90
2022-10-17T00:38:10.926Z,99.90
2022-10-17T00:39:44.005Z,99.90
2022-10-17T00:41:19.012Z,99.90
2022-10-17T00:42:53.180Z,99.90
2022-10-17T00:45:15.243Z,99.90
2022-10-17T00:46:50.477Z,99.90
2022-10-17T00:48:25.513Z,99.90
2022-10-17T00:49:58.510Z,99.90
2022-10-17T00:51:39.731Z,99.90
2022-10-17T00:53:11.975Z,99.90
2022-10-17T00:54:48.820Z,99.90
2022-10-17T00:56:21.832Z,99.90
2022-10-17T00:57:55.086Z,99.90
2022-10-17T00:59:30.651Z,99.90
2022-10-17T01:01:04.526Z,99.90
2022-10-17T01:02:38.424Z,99.90
2022-10-17T01:04:11.720Z,99.90
2022-10-17T01:05:44.893Z,99.90
2022-10-17T01:07:18.199Z,99.90
2022-10-17T01:08:51.455Z,99.90
2022-10-17T01:10:30.618Z,99.90
2022-10-17T01:12:14.099Z,99.90
2022-10-17T01:13:53.025Z,99.90
2022-10-17T01:15:41.773Z,99.90
2022-10-17T01:17:26.038Z,99.90
2022-10-17T01:19:08.581Z,99.90
2022-10-17T01:21:26.459Z,99.90
2022-10-17T01:23:17.809Z,99.90
2022-10-17T01:25:09.056Z,99.90
2022-10-17T01:26:55.863Z,99.90
2022-10-17T01:28:59.227Z,99.90
2022-10-17T01:31:04.356Z,99.90
2022-10-17T01:32:40.638Z,99.90
2022-10-17T01:34:20.003Z,99.90
2022-10-17T01:36:03.240Z,99.90
2022-10-17T01:37:45.199Z,99.90
2022-10-17T01:39:26.949Z,99.90
2022-10-17T01:41:06.230Z,99.90
2022-10-17T01:42:46.937Z,99.90
2022-10-17T01:44:24.161Z,99.90
2022-10-17T01:46:04.206Z,99.90
2022-10-17T01:47:37.524Z,99.90
2022-10-17T01:49:11.756Z,99.90
2022-10-17T01:50:49.816Z,99.90
2022-10-17T01:52:26.752Z,99.90
2022-10-17T01:54:04.108Z,99.90
2022-10-17T01:55:39.955Z,99.90
2022-10-17T01:57:19.505Z,99.90
2022-10-17T01:58:55.729Z,99.90
2022-10-17T02:00:30.021Z,99.90
2022-10-17T02:02:05.676Z,99.90
2022-10-17T02:03:42.399Z,99.90
2022-10-17T02:05:17.217Z,99.90
2022-10-17T02:06:50.275Z,99.90
2022-10-17T02:08:27.906Z,99.90
2022-10-17T02:10:00.945Z,99.90
2022-10-17T02:11:34.620Z,99.90
2022-10-17T02:13:15.702Z,99.90
2022-10-17T02:14:58.037Z,99.90
2022-10-17T02:16:39.262Z,99.90
2022-10-17T02:18:24.662Z,99.90
2022-10-17T02:20:08.814Z,99.90
2022-10-17T02:21:48.097Z,99.90
2022-10-17T02:23:29.124Z,99.90
2022-10-17T02:25:08.662Z,99.90
2022-10-17T02:26:47.833Z,99.90
2022-10-17T02:28:24.652Z,99.90
2022-10-17T02:30:02.127Z,99.90
2022-10-17T02:31:40.869Z,99.90
2022-10-17T02:33:17.796Z,99.90
2022-10-17T02:34:56.389Z,99.90
2022-10-17T02:36:35.842Z,99.90
2022-10-17T02:38:12.112Z,99.90
2022-10-17T02:39:45.929Z,99.90
2022-10-17T02:41:21.131Z,99.90
2022-10-17T02:42:54.390Z,99.90
2022-10-17T02:44:29.572Z,99.90
2022-10-17T02:46:02.977Z,99.90
2022-10-17T02:47:40.976Z,99.90
2022-10-17T02:49:19.788Z,99.90
2022-10-17T02:51:03.121Z,99.90
2022-10-17T02:52:40.099Z,99.90
2022-10-17T02:54:18.919Z,99.90
2022-10-17T02:55:57.610Z,99.90
2022-10-17T02:57:35.393Z,99.90
2022-10-17T02:59:13.412Z,99.90
2022-10-17T03:00:46.828Z,99.90
2022-10-17T03:02:20.005Z,99.90
2022-10-17T03:03:53.362Z,99.90
2022-10-17T03:05:27.673Z,99.90
2022-10-17T03:07:02.106Z,99.90
2022-10-17T03:08:35.242Z,99.90
2022-10-17T03:10:08.911Z,99.90
2022-10-17T03:11:41.891Z,99.90
2022-10-17T03:13:16.291Z,99.90
2022-10-17T03:14:49.324Z,99.90
2022-10-17T03:16:22.905Z,99.90
2022-10-17T03:17:56.750Z,99.90
2022-10-17T03:19:29.942Z,99.90
2022-10-17T03:21:02.031Z,99.90
2022-10-17T03:22:36.512Z,99.90
2022-10-17T03:24:10.938Z,99.90
2022-10-17T03:25:44.238Z,99.90
2022-10-17T03:27:20.127Z,99.90
2022-10-17T03:28:54.532Z,99.90
2022-10-17T03:30:29.571Z,99.90
2022-10-17T03:32:02.877Z,99.90
2022-10-17T03:33:36.553Z,99.90
2022-10-17T03:35:14.092Z,99.90
2022-10-17T03:36:50.591Z,99.90
2022-10-17T03:38:26.085Z,99.90
2022-10-17T03:39:59.185Z,99.90
2022-10-17T03:41:32.251Z,99.90
2022-10-17T03:43:05.814Z,99.90
2022-10-17T03:44:39.031Z,99.90
2022-10-17T03:46:12.140Z,99.90
2022-10-17T03:47:45.925Z,99.90
2022-10-17T03:49:19.093Z,99.90
2022-10-17T03:50:51.791Z,99.90
2022-10-17T03:52:24.848Z,99.90
2022-10-17T03:53:59.359Z,99.90
2022-10-17T03:55:33.080Z,99.90
2022-10-17T03:57:05.243Z,99.90
2022-10-17T03:58:38.372Z,99.90
2022-10-17T04:00:12.762Z,99.90
2022-10-17T04:01:48.727Z,99.90
2022-10-17T04:03:24.446Z,99.90
2022-10-17T04:04:58.081Z,99.90
2022-10-17T04:06:31.142Z,99.90
2022-10-17T04:08:04.939Z,99.90
2022-10-17T04:10:02.396Z,99.90
2022-10-17T04:11:35.645Z,99.90
2022-10-17T04:13:09.797Z,99.90
2022-10-17T04:14:42.854Z,99.90
2022-10-17T04:16:18.117Z,99.90
2022-10-17T04:19:38.380Z,99.90
2022-10-17T04:21:12.859Z,99.90
2022-10-17T04:22:46.573Z,99.90
2022-10-17T04:24:20.079Z,99.90
2022-10-17T04:26:04.380Z,99.90
2022-10-17T04:27:37.488Z,99.90
2022-10-17T04:29:10.672Z,99.90
2022-10-17T04:30:45.566Z,99.90
2022-10-17T04:32:19.679Z,99.90
2022-10-17T04:34:01.251Z,99.90
2022-10-17T04:35:34.640Z,99.90
2022-10-17T04:37:09.365Z,99.90
2022-10-17T04:38:42.954Z,99.90
2022-10-17T04:40:16.770Z,99.90
2022-10-17T04:41:51.619Z,99.90
2022-10-17T04:43:24.738Z,99.90
2022-10-17T04:44:58.034Z,99.90
2022-10-17T04:46:34.621Z,99.90
2022-10-17T04:48:07.989Z,99.90
2022-10-17T04:51:23.310Z,99.90
2022-10-17T04:53:28.611Z,99.90
2022-10-17T04:55:01.785Z,99.90
2022-10-17T04:56:34.865Z,99.90
2022-10-17T04:58:09.950Z,99.90
2022-10-17T04:59:43.923Z,99.90
2022-10-17T05:01:27.258Z,99.90
2022-10-17T05:03:00.339Z,99.90
2022-10-17T05:04:34.617Z,99.90
2022-10-17T05:06:09.300Z,99.90
2022-10-17T05:07:43.526Z,99.90
2022-10-17T05:09:24.070Z,99.90
2022-10-17T05:10:57.197Z,99.90
2022-10-17T05:12:30.643Z,99.90
2022-10-17T05:14:05.286Z,99.90
2022-10-17T05:15:39.877Z,99.90
2022-10-17T05:17:13.062Z,99.90
2022-10-17T05:18:52.690Z,99.90
2022-10-17T05:20:26.859Z,99.90
2022-10-17T05:21:59.891Z,99.90
2022-10-17T05:23:32.940Z,99.90
2022-10-17T05:25:07.080Z,99.90
2022-10-17T05:26:40.416Z,99.90
2022-10-17T05:28:13.577Z,99.90
2022-10-17T05:29:49.735Z,99.90
2022-10-17T05:31:29.564Z,99.90
2022-10-17T05:33:02.925Z,99.90
2022-10-17T05:34:38.355Z,99.90
2022-10-17T05:36:11.710Z,99.90
2022-10-17T05:37:45.605Z,99.90
2022-10-17T05:39:19.643Z,99.90
2022-10-17T05:40:57.841Z,99.90
2022-10-17T05:42:31.377Z,99.90
2022-10-17T05:44:05.739Z,99.90
2022-10-17T05:45:49.728Z,99.90
2022-10-17T05:47:26.194Z,99.90
2022-10-17T05:48:59.248Z,99.90
2022-10-17T05:50:32.358Z,99.90
2022-10-17T05:52:13.439Z,99.90
2022-10-17T05:54:12.835Z,99.90
2022-10-17T05:55:46.079Z,99.90
2022-10-17T05:57:18.207Z,99.90
2022-10-17T05:58:54.107Z,99.90
2022-10-17T06:00:59.402Z,99.90
2022-10-17T06:02:33.653Z,99.90
2022-10-17T06:04:06.909Z,99.90
2022-10-17T06:05:39.994Z,99.90
2022-10-17T06:07:13.464Z,99.90
2022-10-17T06:08:47.247Z,99.90
2022-10-17T06:10:24.214Z,99.90
2022-10-17T06:11:57.545Z,99.90
2022-10-17T06:13:31.448Z,99.90
2022-10-17T06:15:08.416Z,99.90
2022-10-17T06:16:43.597Z,99.90
2022-10-17T06:18:17.022Z,99.90
2022-10-17T06:19:50.136Z,99.90
2022-10-17T06:21:28.374Z,99.90
2022-10-17T06:23:13.411Z,99.90
2022-10-17T06:24:58.982Z,99.90
2022-10-17T06:26:32.266Z,99.90
2022-10-17T06:28:06.000Z,99.90
2022-10-17T06:29:39.064Z,99.90
2022-10-17T06:31:14.829Z,99.90
2022-10-17T06:32:49.287Z,99.90
2022-10-17T06:34:22.484Z,99.90
2022-10-17T06:35:56.586Z,99.90
2022-10-17T06:37:36.320Z,99.90
2022-10-17T06:39:12.572Z,99.90
2022-10-17T06:40:50.278Z,99.90
2022-10-17T06:42:23.310Z,99.90
2022-10-17T06:44:13.792Z,99.90
2022-10-17T06:46:06.457Z,99.90
2022-10-17T06:47:44.131Z,99.90
2022-10-17T06:49:34.337Z,99.90
2022-10-17T06:51:27.683Z,99.90
2022-10-17T06:53:02.832Z,99.90
2022-10-17T06:55:05.763Z,99.90
2022-10-17T06:56:52.525Z,99.90
2022-10-17T06:59:03.951Z,99.90
2022-10-17T07:00:41.204Z,99.90
2022-10-17T07:02:14.414Z,99.90
2022-10-17T07:03:49.986Z,99.90
2022-10-17T07:05:24.379Z,99.90
2022-10-17T07:08:33.481Z,99.90
2022-10-17T07:10:10.275Z,99.90
2022-10-17T07:11:43.701Z,99.90
2022-10-17T07:13:17.052Z,99.90
2022-10-17T07:14:50.503Z,99.90
2022-10-17T07:16:22.765Z,99.90
2022-10-17T07:18:07.348Z,99.90
2022-10-17T07:19:40.441Z,99.90
2022-10-17T07:21:16.133Z,99.90
2022-10-17T07:22:49.736Z,99.90
2022-10-17T07:24:22.864Z,99.90
2022-10-17T07:26:07.475Z,99.90
2022-10-17T07:27:41.297Z,99.90
2022-10-17T07:29:14.660Z,99.90
2022-10-17T07:31:05.004Z,99.90
2022-10-17T07:32:38.106Z,99.90
2022-10-17T07:34:12.087Z,99.90
2022-10-17T07:35:45.227Z,99.90
2022-10-17T07:37:19.651Z,99.90
2022-10-17T07:38:59.047Z,99.90
2022-10-17T07:40:32.750Z,99.90
2022-10-17T07:42:07.585Z,99.90
2022-10-17T07:43:42.867Z,99.90
2022-10-17T07:45:16.713Z,99.90
2022-10-17T07:46:50.386Z,99.90
2022-10-17T07:48:25.831Z,99.90
2022-10-17T07:49:59.175Z,99.90
2022-10-17T07:51:32.266Z,99.90
2022-10-17T07:53:07.146Z,99.90
2022-10-17T07:54:40.670Z,99.90
2022-10-17T07:56:14.047Z,99.90
2022-10-17T07:57:47.097Z,99.90
2022-10-17T07:59:20.455Z,99.90
2022-10-17T08:00:53.644Z,99.90
2022-10-17T08:02:28.325Z,99.90
2022-10-17T08:04:01.903Z,99.90
2022-10-17T08:05:35.427Z,99.90
2022-10-17T08:07:20.596Z,99.90
2022-10-17T08:08:59.617Z,99.90
2022-10-17T08:10:32.690Z,99.90
2022-10-17T08:12:06.308Z,99.90
2022-10-17T08:13:40.269Z,99.90
2022-10-17T08:15:13.419Z,99.90
2022-10-17T08:16:46.499Z,99.90
2022-10-17T08:18:19.576Z,99.90
2022-10-17T08:19:52.676Z,99.90
2022-10-17T08:21:25.733Z,99.90
2022-10-17T08:22:58.783Z,99.90
2022-10-17T08:24:33.283Z,99.90
2022-10-17T08:26:10.523Z,99.90
2022-10-17T08:27:43.775Z,99.90
2022-10-17T08:29:17.639Z,99.90
2022-10-17T08:30:50.772Z,99.90
2022-10-17T08:32:26.545Z,99.90
2022-10-17T08:33:59.719Z,99.90
2022-10-17T08:35:32.796Z,99.90
2022-10-17T08:37:05.976Z,99.90
2022-10-17T08:38:43.013Z,99.90
2022-10-17T08:40:23.212Z,99.90
2022-10-17T08:42:04.843Z,99.90
2022-10-17T08:43:56.375Z,99.90
2022-10-17T08:45:34.105Z,99.90
2022-10-17T08:47:14.664Z,99.90
2022-10-17T08:48:50.096Z,99.90
2022-10-17T08:50:30.826Z,99.90
2022-10-17T08:52:08.557Z,99.90
2022-10-17T08:53:46.170Z,99.90
2022-10-17T08:55:32.904Z,99.90
2022-10-17T08:57:06.128Z,99.90
2022-10-17T08:58:39.442Z,99.90
2022-10-17T09:00:18.554Z,99.90
2022-10-17T09:01:59.709Z,99.90
2022-10-17T09:03:45.805Z,99.90
2022-10-17T09:05:49.930Z,99.90
2022-10-17T09:07:30.598Z,99.90
2022-10-17T09:09:19.155Z,99.90
2022-10-17T09:10:58.929Z,99.90
2022-10-17T09:12:40.124Z,99.90
2022-10-17T09:14:31.762Z,99.90
2022-10-17T09:16:14.522Z,99.90
2022-10-17T09:17:54.074Z,99.90
2022-10-17T09:19:31.777Z,99.90
2022-10-17T09:21:16.962Z,99.90
2022-10-17T09:24:39.291Z,99.90
2022-10-17T09:26:14.117Z,99.90
2022-10-17T09:27:50.935Z,99.90
2022-10-17T09:29:32.421Z,99.90
2022-10-17T09:31:14.324Z,99.90
2022-10-17T09:32:47.747Z,99.90
2022-10-17T09:34:24.021Z,99.90
2022-10-17T09:36:00.342Z,99.90
2022-10-17T09:37:34.207Z,99.90
2022-10-17T09:39:14.337Z,99.90
2022-10-17T09:40:56.846Z,99.90
2022-10-17T09:42:32.370Z,99.90
2022-10-17T09:44:19.374Z,99.90
2022-10-17T09:46:01.261Z,99.90
2022-10-17T09:47:41.371Z,99.90
2022-10-17T09:49:20.966Z,78.50
2022-10-17T09:51:08.315Z,57.80
2022-10-17T09:52:50.821Z,31.90
2022-10-17T09:54:27.211Z,5.30
2022-10-17T09:56:03.772Z,1.00
2022-10-17T09:57:54.531Z,1.00
2022-10-17T09:59:35.582Z,1.00
2022-10-17T10:01:22.712Z,1.00
2022-10-17T10:03:12.058Z,1.00
2022-10-17T10:05:04.085Z,1.00
2022-10-17T10:06:38.882Z,1.00
2022-10-17T10:08:16.476Z,1.00
2022-10-17T10:09:51.689Z,1.00
2022-10-17T10:11:27.490Z,1.00
2022-10-17T10:13:07.534Z,1.00
2022-10-17T10:14:40.694Z,1.00
2022-10-17T10:16:24.238Z,1.00
2022-10-17T10:17:57.327Z,1.00
2022-10-17T10:19:33.179Z,1.00
2022-10-17T10:21:12.497Z,1.00
2022-10-17T10:22:45.565Z,1.00
2022-10-17T10:24:20.279Z,1.00
2022-10-17T10:25:59.046Z,1.00
2022-10-17T10:29:21.512Z,1.00
2022-10-17T10:30:56.751Z,1.00
2022-10-17T10:32:33.317Z,1.00
2022-10-17T10:34:18.583Z,1.00
2022-10-17T10:35:58.450Z,1.00
2022-10-17T10:37:39.057Z,1.00
2022-10-17T10:39:33.043Z,1.00
2022-10-17T10:41:08.737Z,1.00
2022-10-17T10:42:43.139Z,1.00
2022-10-17T10:44:25.791Z,1.00
2022-10-17T10:45:59.223Z,1.00
2022-10-17T10:47:33.443Z,1.00
2022-10-17T10:49:26.656Z,1.00
2022-10-17T10:51:02.126Z,1.00
2022-10-17T10:52:42.480Z,1.00
2022-10-17T10:54:21.121Z,1.00
2022-10-17T10:55:58.821Z,1.00
2022-10-17T10:57:36.268Z,1.00
2022-10-17T10:59:18.834Z,1.00
2022-10-17T11:00:54.723Z,1.00
2022-10-17T11:02:32.523Z,1.00
2022-10-17T11:04:20.649Z,1.00
2022-10-17T11:05:58.809Z,1.00
2022-10-17T11:07:35.825Z,1.00
2022-10-17T11:09:19.316Z,1.00
2022-10-17T11:11:06.586Z,1.00
2022-10-17T11:14:29.814Z,1.00
2022-10-17T11:16:17.095Z,1.00
2022-10-17T11:17:57.421Z,1.00
2022-10-17T11:19:36.279Z,1.00
2022-10-17T11:21:17.076Z,1.00
2022-10-17T11:22:54.872Z,1.00
2022-10-17T11:24:33.726Z,1.00
2022-10-17T11:26:09.623Z,1.00
2022-10-17T11:27:42.691Z,1.00
2022-10-17T11:29:15.867Z,1.00
2022-10-17T11:30:53.602Z,1.00
2022-10-17T11:32:32.749Z,1.00
2022-10-17T11:34:11.215Z,1.00
2022-10-17T11:35:48.185Z,1.00
2022-10-17T11:37:24.237Z,1.00
2022-10-17T11:39:02.794Z,1.00
2022-10-17T11:40:39.538Z,1.00
2022-10-17T11:42:16.970Z,1.00
2022-10-17T11:43:54.655Z,1.00
2022-10-17T11:45:30.402Z,1.00
2022-10-17T11:47:07.412Z,1.00
2022-10-17T11:48:47.988Z,1.00
2022-10-17T11:52:54.957Z,1.00
2022-10-17T11:54:27.816Z,1.00
2022-10-17T11:56:02.687Z,1.00
2022-10-17T11:57:49.668Z,1.00
2022-10-17T11:59:48.158Z,1.00
2022-10-17T12:01:33.757Z,1.00
2022-10-17T12:03:19.356Z,1.00
2022-10-17T12:05:05.705Z,1.00
2022-10-17T12:06:51.261Z,1.00
2022-10-17T12:08:31.615Z,1.00
2022-10-17T12:10:16.755Z,1.00
2022-10-17T12:11:54.760Z,1.00
2022-10-17T12:13:53.217Z,1.00
2022-10-17T12:15:31.796Z,1.00
2022-10-17T12:17:07.076Z,1.00
2022-10-17T12:18:40.254Z,1.00
2022-10-17T12:20:38.740Z,1.00
2022-10-17T12:22:23.709Z,1.00
2022-10-17T12:23:57.096Z,1.00
2022-10-17T12:25:33.584Z,1.00
2022-10-17T12:27:38.103Z,1.00
2022-10-17T12:29:27.453Z,1.00
2022-10-17T12:31:02.941Z,1.00
2022-10-17T12:32:53.403Z,1.00
2022-10-17T12:34:28.512Z,1.00
2022-10-17T12:36:48.083Z,1.00
2022-10-17T12:38:25.675Z,1.00
2022-10-17T12:39:58.777Z,1.00
2022-10-17T12:41:54.764Z,1.00
2022-10-17T12:43:57.781Z,1.00
2022-10-17T12:45:48.358Z,1.00
2022-10-17T12:47:39.219Z,1.00
2022-10-17T12:49:49.673Z,1.00
2022-10-17T12:51:40.484Z,1.00
2022-10-17T12:53:19.232Z,1.00
2022-10-17T12:55:15.148Z,1.00
2022-10-17T12:56:49.779Z,1.00
2022-10-17T12:58:22.885Z,1.00
2022-10-17T12:59:58.667Z,1.00
2022-10-17T13:01:35.486Z,1.00
2022-10-17T13:03:15.540Z,1.00
2022-10-17T13:04:50.051Z,1.00
2022-10-17T13:06:26.062Z,1.00
2022-10-17T13:08:02.121Z,1.00
2022-10-17T13:09:39.753Z,1.00
2022-10-17T13:11:15.309Z,1.00
2022-10-17T13:12:49.745Z,1.00
2022-10-17T13:14:24.471Z,1.00
2022-10-17T13:15:57.550Z,1.00
2022-10-17T13:17:31.609Z,1.00
2022-10-17T13:19:13.712Z,1.00
2022-10-17T13:20:56.872Z,1.00
2022-10-17T13:22:32.911Z,1.00
2022-10-17T13:24:21.510Z,1.00
2022-10-17T13:26:06.226Z,1.00
2022-10-17T13:27:40.659Z,1.00
2022-10-17T13:29:16.309Z,1.00
2022-10-17T13:30:49.865Z,1.00
2022-10-17T13:32:23.851Z,1.00
2022-10-17T13:33:58.544Z,1.00
2022-10-17T13:35:59.505Z,1.00
2022-10-17T13:37:28.638Z,1.00
2022-10-17T13:39:12.391Z,1.00
2022-10-17T13:40:50.631Z,1.00
2022-10-17T13:42:25.988Z,1.00
2022-10-17T13:44:00.985Z,1.00
2022-10-17T13:45:37.864Z,1.00
2022-10-17T13:47:22.940Z,1.00
2022-10-17T13:48:57.014Z,1.00
2022-10-17T13:50:44.065Z,1.00
2022-10-17T13:52:20.787Z,1.00
2022-10-17T13:53:54.324Z,1.00
2022-10-17T13:55:27.462Z,1.00
2022-10-17T13:57:01.697Z,1.00
2022-10-17T13:58:42.281Z,1.00
2022-10-17T14:00:21.305Z,1.00
2022-10-17T14:01:55.891Z,1.00
2022-10-17T14:03:37.584Z,1.00
2022-10-17T14:05:23.315Z,1.00
2022-10-17T14:06:56.791Z,1.00
2022-10-17T14:08:30.486Z,1.00
2022-10-17T14:10:06.269Z,1.00
2022-10-17T14:11:41.784Z,1.00
2022-10-17T14:13:23.270Z,1.00
2022-10-17T14:15:10.074Z,5.70
2022-10-17T14:16:45.648Z,1.00
2022-10-17T14:18:22.640Z,9.40
2022-10-17T14:20:14.060Z,61.90
2022-10-17T14:21:53.979Z,79.00
2022-10-17T14:23:32.901Z,89.80
2022-10-17T14:25:06.624Z,99.90
2022-10-17T14:26:48.244Z,99.90
2022-10-17T14:28:24.165Z,99.90
2022-10-17T14:30:00.770Z,99.90
2022-10-17T14:31:35.004Z,99.90
2022-10-17T14:33:14.995Z,99.90
2022-10-17T14:34:48.460Z,99.90
2022-10-17T14:36:22.703Z,99.90
2022-10-17T14:38:00.319Z,99.90
2022-10-17T14:39:33.487Z,99.90
2022-10-17T14:43:08.079Z,99.90
2022-10-17T14:44:41.201Z,99.90
2022-10-17T14:46:15.932Z,99.90
2022-10-17T14:47:51.642Z,99.90
2022-10-17T14:49:33.055Z,99.90
2022-10-17T14:51:11.275Z,99.90
2022-10-17T14:53:00.781Z,99.90
2022-10-17T14:54:36.055Z,99.90
2022-10-17T14:56:24.000Z,99.90
2022-10-17T14:57:57.839Z,99.90
2022-10-17T14:59:52.873Z,99.90
2022-10-17T15:01:24.013Z,99.90
2022-10-17T15:02:57.407Z,99.90
2022-10-17T15:04:31.994Z,99.90
2022-10-17T15:06:18.447Z,99.90
2022-10-17T15:07:51.900Z,99.90
2022-10-17T15:09:28.534Z,99.90
2022-10-17T15:11:01.615Z,99.90
2022-10-17T15:12:34.880Z,99.90
2022-10-17T15:14:08.143Z,99.90
2022-10-17T15:15:42.067Z,99.90
2022-10-17T15:17:18.511Z,99.90
2022-10-17T15:18:52.509Z,99.90
2022-10-17T15:20:29.487Z,99.90
2022-10-17T15:22:02.605Z,99.90
2022-10-17T15:23:35.709Z,99.90
2022-10-17T15:25:09.651Z,99.90
2022-10-17T15:26:42.879Z,99.90
2022-10-17T15:28:15.983Z,99.90
2022-10-17T15:29:49.595Z,99.90
2022-10-17T15:31:24.328Z,99.90
2022-10-17T15:32:58.103Z,99.90
2022-10-17T15:34:31.358Z,99.90
2022-10-17T15:36:06.269Z,99.90
2022-10-17T15:37:39.434Z,99.90
2022-10-17T15:39:12.571Z,99.90
2022-10-17T15:40:48.842Z,99.90
2022-10-17T15:42:23.418Z,99.90
2022-10-17T15:43:56.485Z,99.90
2022-10-17T15:45:29.610Z,99.90
2022-10-17T15:47:03.038Z,99.90
2022-10-17T15:48:36.162Z,99.90
2022-10-17T15:50:12.821Z,99.90
2022-10-17T15:51:51.659Z,99.90
2022-10-17T15:53:28.229Z,99.90
2022-10-17T15:55:04.296Z,99.90
2022-10-17T15:56:42.772Z,99.90
2022-10-17T15:58:16.979Z,99.90
2022-10-17T15:59:51.323Z,99.90
2022-10-17T16:01:27.270Z,99.90
2022-10-17T16:03:00.487Z,99.90
2022-10-17T16:04:33.563Z,99.90
2022-10-17T16:06:10.731Z,99.90
2022-10-17T16:07:48.351Z,99.90
2022-10-17T16:09:21.404Z,99.90
2022-10-17T16:10:54.530Z,99.90
2022-10-17T16:12:31.286Z,99.90
2022-10-17T16:14:06.524Z,99.90
2022-10-17T16:15:39.603Z,99.90
2022-10-17T16:17:15.205Z,99.90
2022-10-17T16:18:48.310Z,99.90
2022-10-17T16:20:22.077Z,99.90
2022-10-17T16:21:56.247Z,99.90
2022-10-17T16:23:31.989Z,99.90
2022-10-17T16:25:09.980Z,99.90
2022-10-17T16:26:43.323Z,99.90
2022-10-17T16:28:16.368Z,99.90
2022-10-17T16:29:49.427Z,99.90
2022-10-17T16:31:25.034Z,99.90
2022-10-17T16:32:58.281Z,99.90
2022-10-17T16:34:32.348Z,99.90
2022-10-17T16:36:07.094Z,99.90
2022-10-17T16:37:40.138Z,99.90
2022-10-17T16:39:14.602Z,99.90
2022-10-17T16:40:47.682Z,99.90
2022-10-17T16:42:20.848Z,99.90
2022-10-17T16:43:55.390Z,99.90
2022-10-17T16:45:28.586Z,99.90
2022-10-17T16:47:01.964Z,99.90
2022-10-17T16:48:35.019Z,99.90
2022-10-17T16:50:08.848Z,99.90
2022-10-17T16:51:41.938Z,99.90
2022-10-17T16:53:14.977Z,99.90
2022-10-17T16:54:49.447Z,99.90
2022-10-17T16:56:25.261Z,99.90
2022-10-17T16:57:59.973Z,99.90
2022-10-17T16:59:33.028Z,99.90
2022-10-17T17:01:09.722Z,99.90
2022-10-17T17:02:42.821Z,99.90
2022-10-17T17:04:15.907Z,99.90
2022-10-17T17:05:51.492Z,99.90
2022-10-17T17:07:25.125Z,99.90
2022-10-17T17:08:58.788Z,99.90
2022-10-17T17:10:33.171Z,99.90
2022-10-17T17:12:06.641Z,99.90
2022-10-17T17:13:41.048Z,99.90
2022-10-17T17:15:14.103Z,99.90
2022-10-17T17:16:47.155Z,99.90
2022-10-17T17:18:20.266Z,99.90
2022-10-17T17:19:53.536Z,99.90
2022-10-17T17:21:27.014Z,99.90
2022-10-17T17:23:00.084Z,99.90
2022-10-17T17:24:33.242Z,99.90
2022-10-17T17:26:10.397Z,99.90
2022-10-17T17:27:43.413Z,99.90
2022-10-17T17:29:16.469Z,99.90
2022-10-17T17:30:49.488Z,99.90
2022-10-17T17:32:22.658Z,99.90
2022-10-17T17:35:34.257Z,99.90
2022-10-17T17:37:07.341Z,99.90
2022-10-17T17:38:41.223Z,99.90
2022-10-17T17:40:14.365Z,99.90
2022-10-17T17:41:48.916Z,99.90
2022-10-17T17:43:22.499Z,99.90
2022-10-17T17:44:55.517Z,99.90
2022-10-17T17:46:28.665Z,99.90
2022-10-17T17:48:01.753Z,99.90
2022-10-17T17:49:34.825Z,99.90
2022-10-17T17:51:09.562Z,99.90
2022-10-17T17:52:45.500Z,99.90
2022-10-17T17:54:18.552Z,99.90
2022-10-17T17:56:02.736Z,99.90
2022-10-17T17:57:37.201Z,99.90
2022-10-17T17:59:13.411Z,99.90
2022-10-17T18:00:46.495Z,99.90
2022-10-17T18:02:19.641Z,99.90
2022-10-17T18:03:54.290Z,99.90
2022-10-17T18:05:28.069Z,99.90
2022-10-17T18:07:01.174Z,99.90
2022-10-17T18:08:34.229Z,99.90
2022-10-17T18:10:08.798Z,99.90
2022-10-17T18:11:42.130Z,99.90
2022-10-17T18:13:16.947Z,99.90
2022-10-17T18:14:50.006Z,99.90
2022-10-17T18:16:23.505Z,99.90
2022-10-17T18:17:58.188Z,99.90
2022-10-17T18:19:31.236Z,99.90
2022-10-17T18:21:04.353Z,99.90
2022-10-17T18:22:37.599Z,99.90
2022-10-17T18:24:10.717Z,99.90
2022-10-17T18:25:43.738Z,99.90
2022-10-17T18:27:17.027Z,99.90
2022-10-17T18:28:51.643Z,99.90
2022-10-17T18:30:25.944Z,99.90
2022-10-17T18:32:01.497Z,99.90
2022-10-17T18:33:34.686Z,99.90
2022-10-17T18:35:08.160Z,99.90
2022-10-17T18:36:41.268Z,99.90
2022-10-17T18:38:14.301Z,99.90
2022-10-17T18:39:51.487Z,99.90
2022-10-17T18:41:26.814Z,99.90
2022-10-17T18:42:59.852Z,99.90
2022-10-17T18:44:34.262Z,99.90
2022-10-17T18:46:12.340Z,99.90
2022-10-17T18:47:48.168Z,99.90
2022-10-17T18:49:23.138Z,99.90
2022-10-17T18:50:56.189Z,99.90
2022-10-17T18:52:29.308Z,99.90
2022-10-17T18:54:03.027Z,99.90
2022-10-17T18:55:39.453Z,99.90
2022-10-17T18:57:12.510Z,99.90
2022-10-17T18:58:45.625Z,99.90
2022-10-17T19:00:20.291Z,99.90
2022-10-17T19:01:53.513Z,99.90
2022-10-17T19:03:26.568Z,99.90
2022-10-17T19:04:59.890Z,99.90
2022-10-17T19:06:33.404Z,99.90
2022-10-17T19:08:06.598Z,99.90
2022-10-17T19:09:39.651Z,99.90
2022-10-17T19:11:14.642Z,99.90
2022-10-17T19:12:47.685Z,99.90
2022-10-17T19:14:20.745Z,99.90
2022-10-17T19:15:55.206Z,99.90
2022-10-17T19:17:28.476Z,99.90
2022-10-17T19:19:04.477Z,99.90
2022-10-17T19:20:37.523Z,99.90
2022-10-17T19:22:10.568Z,99.90
2022-10-17T19:23:43.674Z,99.90
2022-10-17T19:25:16.852Z,99.90
2022-10-17T19:26:53.372Z,99.90
2022-10-17T19:28:26.464Z,99.90
2022-10-17T19:29:59.526Z,99.90
2022-10-17T19:31:35.574Z,99.90
2022-10-17T19:33:08.610Z,99.90
2022-10-17T19:34:41.646Z,99.90
2022-10-17T19:36:14.936Z,99.90
2022-10-17T19:37:48.019Z,99.90
2022-10-17T19:39:25.119Z,99.90
2022-10-17T19:42:36.114Z,99.90
2022-10-17T19:44:09.357Z,99.90
2022-10-17T19:45:42.381Z,99.90
2022-10-17T19:47:16.796Z,99.90
2022-10-17T19:48:50.852Z,99.90
2022-10-17T19:50:23.888Z,99.90
2022-10-17T19:51:56.909Z,99.90
2022-10-17T19:53:30.119Z,99.90
2022-10-17T19:55:03.214Z,99.90
2022-10-17T19:56:38.092Z,99.90
2022-10-17T19:58:12.009Z,99.90
2022-10-17T19:59:45.070Z,99.90
2022-10-17T20:01:19.858Z,99.90
2022-10-17T20:02:54.352Z,99.90
2022-10-17T20:04:27.444Z,99.90
2022-10-17T20:06:00.464Z,99.90
2022-10-17T20:07:33.496Z,99.90
2022-10-17T20:09:09.818Z,99.90
2022-10-17T20:10:46.090Z,99.90
2022-10-17T20:12:19.131Z,99.90
2022-10-17T20:13:52.830Z,99.90
2022-10-17T20:15:26.253Z,99.90
2022-10-17T20:16:59.481Z,99.90
2022-10-17T20:18:34.532Z,99.90
2022-10-17T20:20:09.077Z,99.90
2022-10-17T20:21:44.326Z,99.90
2022-10-17T20:23:17.641Z,99.90
2022-10-17T20:24:50.750Z,99.90
2022-10-17T20:26:37.517Z,99.90
2022-10-17T20:28:11.949Z,99.90
2022-10-17T20:29:45.016Z,99.90
2022-10-17T20:31:18.296Z,99.90
2022-10-17T20:32:55.176Z,99.90
2022-10-17T20:34:34.713Z,99.90
2022-10-17T20:36:08.587Z,99.90
2022-10-17T20:37:42.809Z,99.90
2022-10-17T20:39:17.579Z,99.90
2022-10-17T20:40:50.601Z,99.90
2022-10-17T20:42:23.740Z,99.90
2022-10-17T20:43:57.001Z,99.90
2022-10-17T20:45:43.834Z,99.90
2022-10-17T20:47:39.897Z,99.90
2022-10-17T20:49:18.234Z,99.90
2022-10-17T20:50:52.047Z,99.90
2022-10-17T20:52:25.164Z,99.90
2022-10-17T20:53:58.266Z,99.90
2022-10-17T20:55:31.900Z,99.90
2022-10-17T20:57:05.893Z,99.90
2022-10-17T20:58:39.482Z,99.90
2022-10-17T21:00:13.626Z,99.90
2022-10-17T21:01:47.429Z,99.90
2022-10-17T21:03:20.514Z,99.90
2022-10-17T21:04:53.544Z,99.90
2022-10-17T21:06:28.565Z,99.90
2022-10-17T21:08:02.642Z,99.90
2022-10-17T21:09:35.715Z,99.90
2022-10-17T21:11:09.489Z,99.90
2022-10-17T21:12:53.156Z,99.90
2022-10-17T21:14:26.760Z,99.90
2022-10-17T21:16:06.300Z,99.90